Belocean — 9V8782 — position and weather

sailwx.info

Track history (hours):
 
Tides and Currents Weather Stations Pressure Air Temp Water Temp Dewpoint Dewpoint Depression Visibility Wind Speed Wind Dir Waves Ship Positions

Belocean

Last reported at 2017-Nov-05 08:17 UTC. Time now 2017-Dec-17 17:50 UTC.
Position N 01°15' E 104°02'.
Warning: this ship's position is 42 days out of date.

Length 190 m; draft 13.4 m.

Type: Ship. MMSI: 563582000.

Date/timePositionNaut miles runAvg speedWind from/ knotsBaromVisibWave heightAir tempDewpointWater temp
2017-Nov-05 08:17N 01°15' E 104°02'311.1
2017-Nov-05 08:00N 01°15' E 103°59'3 5.2
2017-Nov-05 07:30N 01°17' E 103°57'0 0.6
2017-Nov-05 06:53N 01°17' E 103°57'0 0.0
2017-Nov-05 06:23N 01°17' E 103°57'0 0.0
2017-Nov-05 04:47N 01°17' E 103°57'0 0.0
2017-Nov-05 04:23N 01°17' E 103°57'0 0.2
2017-Nov-05 03:53N 01°17' E 103°57'0 0.1
2017-Nov-05 02:41N 01°17' E 103°57'0 0.0
2017-Nov-05 02:20N 01°17' E 103°57'0 0.0
2017-Nov-05 01:35N 01°17' E 103°57'0 0.0
2017-Nov-05 01:29N 01°17' E 103°57'0 0.0
2017-Nov-05 00:50N 01°17' E 103°57'0 0.0
2017-Nov-05 00:29N 01°17' E 103°57'0 0.0
2017-Nov-04 22:29N 01°17' E 103°57'0 0.2
2017-Nov-04 21:47N 01°17' E 103°57'0 0.0
2017-Nov-04 21:20N 01°17' E 103°57'0 0.2
2017-Nov-04 20:59N 01°17' E 103°57'0 0.1
2017-Nov-04 20:17N 01°17' E 103°57'0 0.2
2017-Nov-04 19:56N 01°17' E 103°57'1 2.1
2017-Nov-04 19:30N 01°16' E 103°57'2 4.9
2017-Nov-04 19:01N 01°14' E 103°56'3 5.7
2017-Nov-04 18:30N 01°12' E 103°54'4 7.9
2017-Nov-04 18:01N 01°11' E 103°50'4 7.5
2017-Nov-04 17:30N 01°09' E 103°47'4 7.9
2017-Nov-04 16:59N 01°06' E 103°44'4 8.4
2017-Nov-04 16:30N 01°04' E 103°41'4 7.3
2017-Nov-04 16:00N 01°03' E 103°37'4 8.0
2017-Nov-04 15:29N 01°05' E 103°33'4 7.6
2017-Nov-04 14:58N 01°07' E 103°30'4 9.1
2017-Nov-04 14:30N 01°10' E 103°27'610.0
2017-Nov-04 13:56N 01°13' E 103°22'  
Track history (hours):
 
Tides and Currents Weather Stations Pressure Air Temp Water Temp Dewpoint Dewpoint Depression Visibility Wind Speed Wind Dir Waves Ship Positions

Belocean

Last reported at 2017-Nov-05 08:17 UTC. Time now 2017-Dec-17 17:50 UTC.
Position N 01°15' E 104°02'.
Warning: this ship's position is 42 days out of date.

Length 190 m; draft 13.4 m.

Type: Ship. MMSI: 563582000.

Date/timePositionNaut miles runAvg speedWind from/ knotsBaromVisibWave heightAir tempDewpointWater temp
2017-Nov-05 08:17N 01°15' E 104°02'311.1
2017-Nov-05 08:00N 01°15' E 103°59'3 5.2
2017-Nov-05 07:30N 01°17' E 103°57'0 0.6
2017-Nov-05 06:53N 01°17' E 103°57'0 0.0
2017-Nov-05 06:23N 01°17' E 103°57'0 0.0
2017-Nov-05 04:47N 01°17' E 103°57'0 0.0
2017-Nov-05 04:23N 01°17' E 103°57'0 0.2
2017-Nov-05 03:53N 01°17' E 103°57'0 0.1
2017-Nov-05 02:41N 01°17' E 103°57'0 0.0
2017-Nov-05 02:20N 01°17' E 103°57'0 0.0
2017-Nov-05 01:35N 01°17' E 103°57'0 0.0
2017-Nov-05 01:29N 01°17' E 103°57'0 0.0
2017-Nov-05 00:50N 01°17' E 103°57'0 0.0
2017-Nov-05 00:29N 01°17' E 103°57'0 0.0
2017-Nov-04 22:29N 01°17' E 103°57'0 0.2
2017-Nov-04 21:47N 01°17' E 103°57'0 0.0
2017-Nov-04 21:20N 01°17' E 103°57'0 0.2
2017-Nov-04 20:59N 01°17' E 103°57'0 0.1
2017-Nov-04 20:17N 01°17' E 103°57'0 0.2
2017-Nov-04 19:56N 01°17' E 103°57'1 2.1
2017-Nov-04 19:30N 01°16' E 103°57'2 4.9
2017-Nov-04 19:01N 01°14' E 103°56'3 5.7
2017-Nov-04 18:30N 01°12' E 103°54'4 7.9
2017-Nov-04 18:01N 01°11' E 103°50'4 7.5
2017-Nov-04 17:30N 01°09' E 103°47'4 7.9
2017-Nov-04 16:59N 01°06' E 103°44'4 8.4
2017-Nov-04 16:30N 01°04' E 103°41'4 7.3
2017-Nov-04 16:00N 01°03' E 103°37'4 8.0
2017-Nov-04 15:29N 01°05' E 103°33'4 7.6
2017-Nov-04 14:58N 01°07' E 103°30'4 9.1
2017-Nov-04 14:30N 01°10' E 103°27'610.0
2017-Nov-04 13:56N 01°13' E 103°22'  

Dump ship's entire track history